Station Historical Data
Daily Summary for March 13, 2012 Units:  Both    English   Metric
« Previous Day
Next Day »
Daily Weekly Monthly Yearly Custom
  High: Low: Average:
Temperature: 76.6 °F /  24.8 °C 61.9 °F /  16.6 °C 67.6 °F /  19.8 °C
Dew Point: 63.6 °F /  17.6 °C 55.0 °F /  12.8 °C 60.1 °F /  15.6 °C
Humidity: 94% 48% 78%
Wind Speed: 13.0mph /  20.9km/h - 4mph /  6.4km/h
Wind Gust: 13.0mph /  20.9km/h - -
Wind- - South
Pressure: 30.18 in /  1021.9 hPa 30.09 in /  1018.8 hPa -
Precipitation: 0.00 in /  0 mm    
Historical Graphs
 
 
Tabular Data for March 13, 2012
Time Temperature Dew Point Pressure Wind Wind Speed Wind Gust Humidity Rainfall Rate (Hourly) Conditions
00:00 62.3 °F /  16.8 °C 60.0 °F /  15.6 °C 30.12in /  1019.9hPa SSE 4.0mph /  6.4km/h 10.0mph /  16.1km/h 92% 0.00in /  0mm
00:05 62.2 °F /  16.8 °C 59.8 °F /  15.4 °C 30.12in /  1019.9hPa SSE 6.0mph /  9.7km/h 8.0mph /  12.9km/h 92% 0.00in /  0mm
00:10 62.1 °F /  16.7 °C 59.8 °F /  15.4 °C 30.12in /  1019.9hPa SSE 6.0mph /  9.7km/h 7.0mph /  11.3km/h 92% 0.00in /  0mm
00:16 62.0 °F /  16.7 °C 59.7 °F /  15.4 °C 30.12in /  1019.9hPa SE 6.0mph /  9.7km/h 8.0mph /  12.9km/h 92% 0.00in /  0mm
00:21 62.1 °F /  16.7 °C 60.1 °F /  15.6 °C 30.12in /  1019.9hPa SSE 5.0mph /  8km/h 8.0mph /  12.9km/h 93% 0.00in /  0mm
00:26 62.1 °F /  16.7 °C 60.1 °F /  15.6 °C 30.12in /  1019.9hPa SE 6.0mph /  9.7km/h 9.0mph /  14.5km/h 93% 0.00in /  0mm
00:31 62.1 °F /  16.7 °C 60.1 °F /  15.6 °C 30.12in /  1019.9hPa SSE 7.0mph /  11.3km/h 9.0mph /  14.5km/h 93% 0.00in /  0mm
00:36 62.1 °F /  16.7 °C 60.1 °F /  15.6 °C 30.12in /  1019.9hPa SE 6.0mph /  9.7km/h 8.0mph /  12.9km/h 93% 0.00in /  0mm
00:41 62.1 °F /  16.7 °C 60.1 °F /  15.6 °C 30.12in /  1019.9hPa SSE 5.0mph /  8km/h 8.0mph /  12.9km/h 93% 0.00in /  0mm
00:46 62.1 °F /  16.7 °C 60.1 °F /  15.6 °C 30.12in /  1019.9hPa SSE 7.0mph /  11.3km/h 7.0mph /  11.3km/h 93% 0.00in /  0mm
00:51 62.2 °F /  16.8 °C 60.2 °F /  15.7 °C 30.12in /  1019.9hPa SE 6.0mph /  9.7km/h 9.0mph /  14.5km/h 93% 0.00in /  0mm
00:56 62.2 °F /  16.8 °C 60.2 °F /  15.7 °C 30.12in /  1019.9hPa SE 6.0mph /  9.7km/h 9.0mph /  14.5km/h 93% 0.00in /  0mm
01:01 62.2 °F /  16.8 °C 60.2 °F /  15.7 °C 30.12in /  1019.9hPa SE 6.0mph /  9.7km/h 9.0mph /  14.5km/h 93% 0.00in /  0mm
01:06 62.2 °F /  16.8 °C 60.2 °F /  15.7 °C 30.12in /  1019.9hPa SE 4.0mph /  6.4km/h 9.0mph /  14.5km/h 93% 0.00in /  0mm
01:11 62.1 °F /  16.7 °C 60.1 °F /  15.6 °C 30.12in /  1019.9hPa SSE 5.0mph /  8km/h 6.0mph /  9.7km/h 93% 0.00in /  0mm
01:16 62.0 °F /  16.7 °C 60.0 °F /  15.6 °C 30.12in /  1019.9hPa South 7.0mph /  11.3km/h 9.0mph /  14.5km/h 93% 0.00in /  0mm
01:21 61.9 °F /  16.6 °C 59.9 °F /  15.5 °C 30.12in /  1019.9hPa SSE 5.0mph /  8km/h 7.0mph /  11.3km/h 93% 0.00in /  0mm
01:26 61.9 °F /  16.6 °C 59.9 °F /  15.5 °C 30.12in /  1019.9hPa SE 8.0mph /  12.9km/h 9.0mph /  14.5km/h 93% 0.00in /  0mm
01:31 62.0 °F /  16.7 °C 60.3 °F /  15.7 °C 30.12in /  1019.9hPa SSE 5.0mph /  8km/h 9.0mph /  14.5km/h 94% 0.00in /  0mm
01:36 62.1 °F /  16.7 °C 60.1 °F /  15.6 °C 30.12in /  1019.9hPa SSE 5.0mph /  8km/h 8.0mph /  12.9km/h 93% 0.00in /  0mm
01:41 62.1 °F /  16.7 °C 60.1 °F /  15.6 °C 30.11in /  1019.5hPa SE 7.0mph /  11.3km/h 8.0mph /  12.9km/h 93% 0.00in /  0mm
01:46 62.2 °F /  16.8 °C 60.2 °F /  15.7 °C 30.11in /  1019.5hPa SSE 4.0mph /  6.4km/h 7.0mph /  11.3km/h 93% 0.00in /  0mm
01:51 62.3 °F /  16.8 °C 60.2 °F /  15.7 °C 30.12in /  1019.9hPa SSE 6.0mph /  9.7km/h 6.0mph /  9.7km/h 93% 0.00in /  0mm
01:56 62.3 °F /  16.8 °C 60.2 °F /  15.7 °C 30.12in /  1019.9hPa South 3.0mph /  4.8km/h 6.0mph /  9.7km/h 93% 0.00in /  0mm
02:01 62.3 °F /  16.8 °C 60.2 °F /  15.7 °C 30.12in /  1019.9hPa SSW 4.0mph /  6.4km/h 7.0mph /  11.3km/h 93% 0.00in /  0mm
02:06 62.4 °F /  16.9 °C 60.3 °F /  15.7 °C 30.12in /  1019.9hPa SE 1.0mph /  1.6km/h 6.0mph /  9.7km/h 93% 0.00in /  0mm
02:11 62.4 °F /  16.9 °C 60.3 °F /  15.7 °C 30.12in /  1019.9hPa SSE 2.0mph /  3.2km/h 7.0mph /  11.3km/h 93% 0.00in /  0mm
02:16 62.4 °F /  16.9 °C 60.3 °F /  15.7 °C 30.12in /  1019.9hPa South 2.0mph /  3.2km/h 5.0mph /  8km/h 93% 0.00in /  0mm
02:21 62.5 °F /  16.9 °C 60.5 °F /  15.8 °C 30.12in /  1019.9hPa SSE 3.0mph /  4.8km/h 7.0mph /  11.3km/h 93% 0.00in /  0mm
02:27 62.6 °F /  17 °C 60.5 °F /  15.8 °C 30.12in /  1019.9hPa SE 5.0mph /  8km/h 7.0mph /  11.3km/h 93% 0.00in /  0mm
02:32 62.6 °F /  17 °C 60.5 °F /  15.8 °C 30.12in /  1019.9hPa SSE 4.0mph /  6.4km/h 5.0mph /  8km/h 93% 0.00in /  0mm
02:37 62.7 °F /  17.1 °C 60.7 °F /  15.9 °C 30.12in /  1019.9hPa SSW 3.0mph /  4.8km/h 8.0mph /  12.9km/h 93% 0.00in /  0mm
02:42 62.7 °F /  17.1 °C 60.7 °F /  15.9 °C 30.12in /  1019.9hPa SE 4.0mph /  6.4km/h 6.0mph /  9.7km/h 93% 0.00in /  0mm
02:47 62.8 °F /  17.1 °C 60.8 °F /  16 °C 30.12in /  1019.9hPa SSE 5.0mph /  8km/h 6.0mph /  9.7km/h 93% 0.00in /  0mm
02:52 62.8 °F /  17.1 °C 60.8 °F /  16 °C 30.12in /  1019.9hPa South 3.0mph /  4.8km/h 4.0mph /  6.4km/h 93% 0.00in /  0mm
02:57 62.8 °F /  17.1 °C 60.8 °F /  16 °C 30.12in /  1019.9hPa South 6.0mph /  9.7km/h 6.0mph /  9.7km/h 93% 0.00in /  0mm
03:02 62.9 °F /  17.2 °C 60.8 °F /  16 °C 30.13in /  1020.2hPa SSW 3.0mph /  4.8km/h 6.0mph /  9.7km/h 93% 0.00in /  0mm
03:07 62.9 °F /  17.2 °C 60.8 °F /  16 °C 30.13in /  1020.2hPa SSW 3.0mph /  4.8km/h 4.0mph /  6.4km/h 93% 0.00in /  0mm
03:12 62.9 °F /  17.2 °C 60.8 °F /  16 °C 30.12in /  1019.9hPa South 2.0mph /  3.2km/h 4.0mph /  6.4km/h 93% 0.00in /  0mm
03:17 62.9 °F /  17.2 °C 60.8 °F /  16 °C 30.13in /  1020.2hPa South 4.0mph /  6.4km/h 5.0mph /  8km/h 93% 0.00in /  0mm
03:22 62.9 °F /  17.2 °C 60.8 °F /  16 °C 30.13in /  1020.2hPa SSE 3.0mph /  4.8km/h 5.0mph /  8km/h 93% 0.00in /  0mm
03:27 62.8 °F /  17.1 °C 60.8 °F /  16 °C 30.13in /  1020.2hPa South 4.0mph /  6.4km/h 4.0mph /  6.4km/h 93% 0.00in /  0mm
03:32 62.9 °F /  17.2 °C 60.8 °F /  16 °C 30.13in /  1020.2hPa SSW 4.0mph /  6.4km/h 4.0mph /  6.4km/h 93% 0.00in /  0mm
03:37 62.9 °F /  17.2 °C 60.8 °F /  16 °C 30.13in /  1020.2hPa SW 2.0mph /  3.2km/h 5.0mph /  8km/h 93% 0.00in /  0mm
03:42 62.9 °F /  17.2 °C 60.8 °F /  16 °C 30.13in /  1020.2hPa SSE 1.0mph /  1.6km/h 4.0mph /  6.4km/h 93% 0.00in /  0mm
03:47 62.9 °F /  17.2 °C 60.8 °F /  16 °C 30.13in /  1020.2hPa South 2.0mph /  3.2km/h 3.0mph /  4.8km/h 93% 0.00in /  0mm
03:52 62.9 °F /  17.2 °C 60.8 °F /  16 °C 30.13in /  1020.2hPa South 5.0mph /  8km/h 5.0mph /  8km/h 93% 0.00in /  0mm
03:57 62.9 °F /  17.2 °C 60.8 °F /  16 °C 30.12in /  1019.9hPa South 3.0mph /  4.8km/h 4.0mph /  6.4km/h 93% 0.00in /  0mm
04:02 62.8 °F /  17.1 °C 60.8 °F /  16 °C 30.13in /  1020.2hPa SSE 4.0mph /  6.4km/h 4.0mph /  6.4km/h 93% 0.00in /  0mm
04:07 62.8 °F /  17.1 °C 60.8 °F /  16 °C 30.12in /  1019.9hPa SSE 3.0mph /  4.8km/h 3.0mph /  4.8km/h 93% 0.00in /  0mm
04:12 62.8 °F /  17.1 °C 60.8 °F /  16 °C 30.12in /  1019.9hPa South 2.0mph /  3.2km/h 4.0mph /  6.4km/h 93% 0.00in /  0mm
04:17 62.8 °F /  17.1 °C 60.8 °F /  16 °C 30.12in /  1019.9hPa South 3.0mph /  4.8km/h 5.0mph /  8km/h 93% 0.00in /  0mm
04:22 62.8 °F /  17.1 °C 60.8 °F /  16 °C 30.12in /  1019.9hPa South 2.0mph /  3.2km/h 4.0mph /  6.4km/h 93% 0.00in /  0mm
04:27 62.8 °F /  17.1 °C 60.8 °F /  16 °C 30.12in /  1019.9hPa South 1.0mph /  1.6km/h 4.0mph /  6.4km/h 93% 0.00in /  0mm
04:32 62.8 °F /  17.1 °C 60.8 °F /  16 °C 30.12in /  1019.9hPa SSW 1.0mph /  1.6km/h 4.0mph /  6.4km/h 93% 0.00in /  0mm
04:37 62.7 °F /  17.1 °C 60.7 °F /  15.9 °C 30.12in /  1019.9hPa SSW 1.0mph /  1.6km/h 4.0mph /  6.4km/h 93% 0.00in /  0mm
04:42 62.7 °F /  17.1 °C 60.7 °F /  15.9 °C 30.12in /  1019.9hPa SSE 3.0mph /  4.8km/h 5.0mph /  8km/h 93% 0.00in /  0mm
04:47 62.8 °F /  17.1 °C 60.8 °F /  16 °C 30.12in /  1019.9hPa South 3.0mph /  4.8km/h 6.0mph /  9.7km/h 93% 0.00in /  0mm
04:52 62.8 °F /  17.1 °C 60.8 °F /  16 °C 30.12in /  1019.9hPa SSE 3.0mph /  4.8km/h 4.0mph /  6.4km/h 93% 0.00in /  0mm
04:57 62.9 °F /  17.2 °C 60.8 °F /  16 °C 30.12in /  1019.9hPa SSE 2.0mph /  3.2km/h 4.0mph /  6.4km/h 93% 0.00in /  0mm
05:02 62.9 °F /  17.2 °C 60.8 °F /  16 °C 30.12in /  1019.9hPa South 3.0mph /  4.8km/h 3.0mph /  4.8km/h 93% 0.00in /  0mm
05:07 62.9 °F /  17.2 °C 60.8 °F /  16 °C 30.12in /  1019.9hPa SSE 3.0mph /  4.8km/h 5.0mph /  8km/h 93% 0.00in /  0mm
05:12 63.0 °F /  17.2 °C 61.0 °F /  16.1 °C 30.12in /  1019.9hPa SSE 2.0mph /  3.2km/h 3.0mph /  4.8km/h 93% 0.00in /  0mm
05:17 63.0 °F /  17.2 °C 61.0 °F /  16.1 °C 30.12in /  1019.9hPa SW 1.0mph /  1.6km/h 5.0mph /  8km/h 93% 0.00in /  0mm
05:23 63.1 °F /  17.3 °C 61.0 °F /  16.1 °C 30.12in /  1019.9hPa SSW 3.0mph /  4.8km/h 3.0mph /  4.8km/h 93% 0.00in /  0mm
05:28 63.1 °F /  17.3 °C 61.0 °F /  16.1 °C 30.12in /  1019.9hPa Calm   4.0mph /  6.4km/h 93% 0.00in /  0mm
05:33 63.2 °F /  17.3 °C 61.2 °F /  16.2 °C 30.12in /  1019.9hPa WSW 7.0mph /  11.3km/h 7.0mph /  11.3km/h 93% 0.00in /  0mm
05:38 63.3 °F /  17.4 °C 61.2 °F /  16.2 °C 30.12in /  1019.9hPa SW 2.0mph /  3.2km/h 6.0mph /  9.7km/h 93% 0.00in /  0mm
05:43 63.3 °F /  17.4 °C 61.2 °F /  16.2 °C 30.12in /  1019.9hPa SSW 2.0mph /  3.2km/h 6.0mph /  9.7km/h 93% 0.00in /  0mm
05:48 63.4 °F /  17.4 °C 61.3 °F /  16.3 °C 30.12in /  1019.9hPa South 2.0mph /  3.2km/h 5.0mph /  8km/h 93% 0.00in /  0mm
05:53 63.5 °F /  17.5 °C 61.4 °F /  16.3 °C 30.12in /  1019.9hPa SW 3.0mph /  4.8km/h 4.0mph /  6.4km/h 93% 0.00in /  0mm
05:58 63.5 °F /  17.5 °C 61.4 °F /  16.3 °C 30.13in /  1020.2hPa SSW 4.0mph /  6.4km/h 5.0mph /  8km/h 93% 0.00in /  0mm
06:03 63.5 °F /  17.5 °C 61.4 °F /  16.3 °C 30.13in /  1020.2hPa SW 4.0mph /  6.4km/h 4.0mph /  6.4km/h 93% 0.00in /  0mm
06:08 63.6 °F /  17.6 °C 61.5 °F /  16.4 °C 30.13in /  1020.2hPa SW 2.0mph /  3.2km/h 9.0mph /  14.5km/h 93% 0.00in /  0mm
06:13 63.7 °F /  17.6 °C 61.3 °F /  16.3 °C 30.13in /  1020.2hPa WSW 5.0mph /  8km/h 6.0mph /  9.7km/h 92% 0.00in /  0mm
06:18 63.9 °F /  17.7 °C 61.5 °F /  16.4 °C 30.13in /  1020.2hPa SSW 5.0mph /  8km/h 6.0mph /  9.7km/h 92% 0.00in /  0mm
06:23 63.8 °F /  17.7 °C 61.4 °F /  16.3 °C 30.13in /  1020.2hPa WSW 3.0mph /  4.8km/h 7.0mph /  11.3km/h 92% 0.00in /  0mm
06:28 63.8 °F /  17.7 °C 61.4 °F /  16.3 °C 30.13in /  1020.2hPa SW 4.0mph /  6.4km/h 5.0mph /  8km/h 92% 0.00in /  0mm
06:33 63.8 °F /  17.7 °C 61.4 °F /  16.3 °C 30.13in /  1020.2hPa SW 2.0mph /  3.2km/h 5.0mph /  8km/h 92% 0.00in /  0mm
06:38 63.8 °F /  17.7 °C 61.4 °F /  16.3 °C 30.13in /  1020.2hPa SW 3.0mph /  4.8km/h 5.0mph /  8km/h 92% 0.00in /  0mm
06:43 63.7 °F /  17.6 °C 61.3 °F /  16.3 °C 30.14in /  1020.5hPa SW 2.0mph /  3.2km/h 3.0mph /  4.8km/h 92% 0.00in /  0mm
06:48 63.7 °F /  17.6 °C 61.3 °F /  16.3 °C 30.14in /  1020.5hPa WSW 2.0mph /  3.2km/h 3.0mph /  4.8km/h 92% 0.00in /  0mm
06:53 63.7 °F /  17.6 °C 61.3 °F /  16.3 °C 30.14in /  1020.5hPa WSW 5.0mph /  8km/h 6.0mph /  9.7km/h 92% 0.00in /  0mm
06:58 63.7 °F /  17.6 °C 61.3 °F /  16.3 °C 30.14in /  1020.5hPa WSW 5.0mph /  8km/h 6.0mph /  9.7km/h 92% 0.00in /  0mm
07:03 63.6 °F /  17.6 °C 61.5 °F /  16.4 °C 30.14in /  1020.5hPa SSW 3.0mph /  4.8km/h 5.0mph /  8km/h 93% 0.00in /  0mm
07:08 63.5 °F /  17.5 °C 61.4 °F /  16.3 °C 30.14in /  1020.5hPa SW 3.0mph /  4.8km/h 4.0mph /  6.4km/h 93% 0.00in /  0mm
07:13 63.5 °F /  17.5 °C 61.4 °F /  16.3 °C 30.14in /  1020.5hPa SW 2.0mph /  3.2km/h 4.0mph /  6.4km/h 93% 0.00in /  0mm
07:18 63.4 °F /  17.4 °C 61.3 °F /  16.3 °C 30.14in /  1020.5hPa SW 4.0mph /  6.4km/h 4.0mph /  6.4km/h 93% 0.00in /  0mm
07:23 63.4 °F /  17.4 °C 61.3 °F /  16.3 °C 30.14in /  1020.5hPa SW 2.0mph /  3.2km/h 5.0mph /  8km/h 93% 0.00in /  0mm
07:28 63.2 °F /  17.3 °C 61.2 °F /  16.2 °C 30.14in /  1020.5hPa SSW 3.0mph /  4.8km/h 3.0mph /  4.8km/h 93% 0.00in /  0mm
07:34 63.2 °F /  17.3 °C 61.2 °F /  16.2 °C 30.14in /  1020.5hPa SW 3.0mph /  4.8km/h 4.0mph /  6.4km/h 93% 0.00in /  0mm
07:39 63.1 °F /  17.3 °C 61.0 °F /  16.1 °C 30.14in /  1020.5hPa South 2.0mph /  3.2km/h 4.0mph /  6.4km/h 93% 0.00in /  0mm
07:44 63.1 °F /  17.3 °C 61.0 °F /  16.1 °C 30.15in /  1020.9hPa SSW 1.0mph /  1.6km/h 3.0mph /  4.8km/h 93% 0.00in /  0mm
07:49 63.1 °F /  17.3 °C 61.0 °F /  16.1 °C 30.15in /  1020.9hPa SSW 2.0mph /  3.2km/h 3.0mph /  4.8km/h 93% 0.00in /  0mm
07:54 63.1 °F /  17.3 °C 61.0 °F /  16.1 °C 30.15in /  1020.9hPa SW 3.0mph /  4.8km/h 3.0mph /  4.8km/h 93% 0.00in /  0mm
07:59 63.2 °F /  17.3 °C 61.2 °F /  16.2 °C 30.15in /  1020.9hPa SW 5.0mph /  8km/h 5.0mph /  8km/h 93% 0.00in /  0mm
08:04 63.2 °F /  17.3 °C 61.2 °F /  16.2 °C 30.15in /  1020.9hPa South 2.0mph /  3.2km/h 4.0mph /  6.4km/h 93% 0.00in /  0mm
08:09 63.3 °F /  17.4 °C 61.2 °F /  16.2 °C 30.15in /  1020.9hPa SW 2.0mph /  3.2km/h 6.0mph /  9.7km/h 93% 0.00in /  0mm
08:14 63.3 °F /  17.4 °C 61.2 °F /  16.2 °C 30.15in /  1020.9hPa SW 5.0mph /  8km/h 7.0mph /  11.3km/h 93% 0.00in /  0mm
08:19 63.3 °F /  17.4 °C 61.2 °F /  16.2 °C 30.15in /  1020.9hPa SW 4.0mph /  6.4km/h 6.0mph /  9.7km/h 93% 0.00in /  0mm
08:24 63.3 °F /  17.4 °C 61.2 °F /  16.2 °C 30.15in /  1020.9hPa SW 3.0mph /  4.8km/h 6.0mph /  9.7km/h 93% 0.00in /  0mm
08:29 63.3 °F /  17.4 °C 61.2 °F /  16.2 °C 30.15in /  1020.9hPa SW 3.0mph /  4.8km/h 4.0mph /  6.4km/h 93% 0.00in /  0mm
08:34 63.3 °F /  17.4 °C 61.2 °F /  16.2 °C 30.15in /  1020.9hPa SW 5.0mph /  8km/h 6.0mph /  9.7km/h 93% 0.00in /  0mm
08:39 63.3 °F /  17.4 °C 61.2 °F /  16.2 °C 30.15in /  1020.9hPa SW 5.0mph /  8km/h 5.0mph /  8km/h 93% 0.00in /  0mm
08:44 63.3 °F /  17.4 °C 61.2 °F /  16.2 °C 30.16in /  1021.2hPa SW 4.0mph /  6.4km/h 4.0mph /  6.4km/h 93% 0.00in /  0mm
08:49 63.3 °F /  17.4 °C 61.2 °F /  16.2 °C 30.16in /  1021.2hPa SW 3.0mph /  4.8km/h 5.0mph /  8km/h 93% 0.00in /  0mm
08:54 63.3 °F /  17.4 °C 61.2 °F /  16.2 °C 30.16in /  1021.2hPa SW 5.0mph /  8km/h 5.0mph /  8km/h 93% 0.00in /  0mm
08:59 63.4 °F /  17.4 °C 61.3 °F /  16.3 °C 30.16in /  1021.2hPa WSW 3.0mph /  4.8km/h 6.0mph /  9.7km/h 93% 0.00in /  0mm
09:04 63.4 °F /  17.4 °C 61.7 °F /  16.5 °C 30.16in /  1021.2hPa WSW 5.0mph /  8km/h 5.0mph /  8km/h 94% 0.00in /  0mm
09:09 63.5 °F /  17.5 °C 61.8 °F /  16.6 °C 30.16in /  1021.2hPa SW 5.0mph /  8km/h 5.0mph /  8km/h 94% 0.00in /  0mm
09:14 63.5 °F /  17.5 °C 61.8 °F /  16.6 °C 30.17in /  1021.6hPa SSW 1.0mph /  1.6km/h 5.0mph /  8km/h 94% 0.00in /  0mm
09:19 63.5 °F /  17.5 °C 61.8 °F /  16.6 °C 30.17in /  1021.6hPa SW 3.0mph /  4.8km/h 5.0mph /  8km/h 94% 0.00in /  0mm
09:24 63.6 °F /  17.6 °C 61.5 °F /  16.4 °C 30.17in /  1021.6hPa SW 3.0mph /  4.8km/h 6.0mph /  9.7km/h 93% 0.00in /  0mm
09:29 63.7 °F /  17.6 °C 62.0 °F /  16.7 °C 30.17in /  1021.6hPa SW 4.0mph /  6.4km/h 5.0mph /  8km/h 94% 0.00in /  0mm
09:34 63.7 °F /  17.6 °C 62.0 °F /  16.7 °C 30.17in /  1021.6hPa SW 4.0mph /  6.4km/h 6.0mph /  9.7km/h 94% 0.00in /  0mm
09:39 63.8 °F /  17.7 °C 61.7 °F /  16.5 °C 30.17in /  1021.6hPa SSW 4.0mph /  6.4km/h 6.0mph /  9.7km/h 93% 0.00in /  0mm
09:44 63.9 °F /  17.7 °C 61.8 °F /  16.6 °C 30.17in /  1021.6hPa SW 3.0mph /  4.8km/h 4.0mph /  6.4km/h 93% 0.00in /  0mm
09:49 64.1 °F /  17.8 °C 62.0 °F /  16.7 °C 30.17in /  1021.6hPa SSE 2.0mph /  3.2km/h 4.0mph /  6.4km/h 93% 0.00in /  0mm
09:54 64.2 °F /  17.9 °C 62.1 °F /  16.7 °C 30.17in /  1021.6hPa SW 3.0mph /  4.8km/h 4.0mph /  6.4km/h 93% 0.00in /  0mm
09:59 64.4 °F /  18 °C 62.3 °F /  16.8 °C 30.17in /  1021.6hPa SSE 5.0mph /  8km/h 6.0mph /  9.7km/h 93% 0.00in /  0mm
10:04 64.5 °F /  18.1 °C 62.4 °F /  16.9 °C 30.17in /  1021.6hPa SSW 7.0mph /  11.3km/h 7.0mph /  11.3km/h 93% 0.00in /  0mm
10:09 64.7 °F /  18.2 °C 62.3 °F /  16.8 °C 30.17in /  1021.6hPa SSW 5.0mph /  8km/h 6.0mph /  9.7km/h 92% 0.00in /  0mm
10:15 65.0 °F /  18.3 °C 62.6 °F /  17 °C 30.17in /  1021.6hPa South 4.0mph /  6.4km/h 6.0mph /  9.7km/h 92% 0.00in /  0mm
10:20 65.2 °F /  18.4 °C 62.8 °F /  17.1 °C 30.17in /  1021.6hPa SW 5.0mph /  8km/h 7.0mph /  11.3km/h 92% 0.00in /  0mm
10:25 65.8 °F /  18.8 °C 63.4 °F /  17.4 °C 30.17in /  1021.6hPa SW 4.0mph /  6.4km/h 7.0mph /  11.3km/h 92% 0.00in /  0mm
10:30 66.1 °F /  18.9 °C 63.1 °F /  17.3 °C 30.17in /  1021.6hPa South 3.0mph /  4.8km/h 10.0mph /  16.1km/h 90% 0.00in /  0mm
10:35 66.2 °F /  19 °C 63.2 °F /  17.3 °C 30.17in /  1021.6hPa SSW 8.0mph /  12.9km/h 9.0mph /  14.5km/h 90% 0.00in /  0mm
10:40 66.0 °F /  18.9 °C 62.3 °F /  16.8 °C 30.17in /  1021.6hPa SW 6.0mph /  9.7km/h 11.0mph /  17.7km/h 88% 0.00in /  0mm
10:45 66.3 °F /  19.1 °C 62.6 °F /  17 °C 30.17in /  1021.6hPa SW 5.0mph /  8km/h 8.0mph /  12.9km/h 88% 0.00in /  0mm
10:50 66.6 °F /  19.2 °C 62.9 °F /  17.2 °C 30.17in /  1021.6hPa South 5.0mph /  8km/h 8.0mph /  12.9km/h 88% 0.00in /  0mm
10:55 67.0 °F /  19.4 °C 62.3 °F /  16.8 °C 30.17in /  1021.6hPa SSW 9.0mph /  14.5km/h 9.0mph /  14.5km/h 85% 0.00in /  0mm
11:00 67.3 °F /  19.6 °C 62.6 °F /  17 °C 30.18in /  1021.9hPa WSW 5.0mph /  8km/h 8.0mph /  12.9km/h 85% 0.00in /  0mm
11:05 67.0 °F /  19.4 °C 61.7 °F /  16.5 °C 30.18in /  1021.9hPa SW 6.0mph /  9.7km/h 11.0mph /  17.7km/h 83% 0.00in /  0mm
11:10 67.0 °F /  19.4 °C 62.3 °F /  16.8 °C 30.18in /  1021.9hPa SSW 5.0mph /  8km/h 9.0mph /  14.5km/h 85% 0.00in /  0mm
11:15 67.1 °F /  19.5 °C 62.1 °F /  16.7 °C 30.18in /  1021.9hPa SW 6.0mph /  9.7km/h 8.0mph /  12.9km/h 84% 0.00in /  0mm
11:20 67.0 °F /  19.4 °C 62.0 °F /  16.7 °C 30.18in /  1021.9hPa WSW 6.0mph /  9.7km/h 7.0mph /  11.3km/h 84% 0.00in /  0mm
11:25 68.3 °F /  20.2 °C 63.6 °F /  17.6 °C 30.18in /  1021.9hPa South 7.0mph /  11.3km/h 7.0mph /  11.3km/h 85% 0.00in /  0mm
11:30 68.7 °F /  20.4 °C 62.6 °F /  17 °C 30.18in /  1021.9hPa SSW 7.0mph /  11.3km/h 8.0mph /  12.9km/h 81% 0.00in /  0mm
11:35 69.2 °F /  20.7 °C 62.8 °F /  17.1 °C 30.18in /  1021.9hPa South 7.0mph /  11.3km/h 9.0mph /  14.5km/h 80% 0.00in /  0mm
11:37 69.3 °F /  20.7 °C 62.9 °F /  17.2 °C 30.18in /  1021.9hPa South 8.0mph /  12.9km/h 9.0mph /  14.5km/h 80% 0.00in /  0mm
11:42 69.0 °F /  20.6 °C 61.9 °F /  16.6 °C 30.18in /  1021.9hPa SW 7.0mph /  11.3km/h 10.0mph /  16.1km/h 78% 0.00in /  0mm
11:47 68.7 °F /  20.4 °C 62.3 °F /  16.8 °C 30.18in /  1021.9hPa SE 6.0mph /  9.7km/h 7.0mph /  11.3km/h 80% 0.00in /  0mm
11:52 69.1 °F /  20.6 °C 63.0 °F /  17.2 °C 30.18in /  1021.9hPa SSW 4.0mph /  6.4km/h 10.0mph /  16.1km/h 81% 0.00in /  0mm
11:57 69.0 °F /  20.6 °C 62.2 °F /  16.8 °C 30.18in /  1021.9hPa SW 3.0mph /  4.8km/h 7.0mph /  11.3km/h 79% 0.00in /  0mm
12:02 69.0 °F /  20.6 °C 61.9 °F /  16.6 °C 30.18in /  1021.9hPa West 6.0mph /  9.7km/h 6.0mph /  9.7km/h 78% 0.00in /  0mm
12:07 69.4 °F /  20.8 °C 62.6 °F /  17 °C 30.17in /  1021.6hPa South 9.0mph /  14.5km/h 11.0mph /  17.7km/h 79% 0.00in /  0mm
12:12 70.0 °F /  21.1 °C 62.5 °F /  16.9 °C 30.17in /  1021.6hPa WSW 7.0mph /  11.3km/h 10.0mph /  16.1km/h 77% 0.00in /  0mm
12:17 70.4 °F /  21.3 °C 62.1 °F /  16.7 °C 30.18in /  1021.9hPa SE 6.0mph /  9.7km/h 8.0mph /  12.9km/h 75% 0.00in /  0mm
12:22 70.2 °F /  21.2 °C 61.9 °F /  16.6 °C 30.17in /  1021.6hPa SW 4.0mph /  6.4km/h 8.0mph /  12.9km/h 75% 0.00in /  0mm
12:27 70.3 °F /  21.3 °C 62.4 °F /  16.9 °C 30.17in /  1021.6hPa SW 3.0mph /  4.8km/h 7.0mph /  11.3km/h 76% 0.00in /  0mm
12:33 71.1 °F /  21.7 °C 63.2 °F /  17.3 °C 30.17in /  1021.6hPa SE 8.0mph /  12.9km/h 10.0mph /  16.1km/h 76% 0.00in /  0mm
12:38 70.7 °F /  21.5 °C 62.4 °F /  16.9 °C 30.17in /  1021.6hPa SE 8.0mph /  12.9km/h 9.0mph /  14.5km/h 75% 0.00in /  0mm
12:43 70.3 °F /  21.3 °C 62.4 °F /  16.9 °C 30.17in /  1021.6hPa SSW 2.0mph /  3.2km/h 7.0mph /  11.3km/h 76% 0.00in /  0mm
12:48 71.3 °F /  21.8 °C 63.3 °F /  17.4 °C 30.17in /  1021.6hPa South 5.0mph /  8km/h 11.0mph /  17.7km/h 76% 0.00in /  0mm
12:53 72.0 °F /  22.2 °C 63.3 °F /  17.4 °C 30.17in /  1021.6hPa SSW 4.0mph /  6.4km/h 7.0mph /  11.3km/h 74% 0.00in /  0mm
12:58 71.6 °F /  22 °C 62.5 °F /  16.9 °C 30.17in /  1021.6hPa WSW 6.0mph /  9.7km/h 9.0mph /  14.5km/h 73% 0.00in /  0mm
13:03 71.0 °F /  21.7 °C 63.1 °F /  17.3 °C 30.17in /  1021.6hPa South 3.0mph /  4.8km/h 7.0mph /  11.3km/h 76% 0.00in /  0mm
13:08 71.3 °F /  21.8 °C 62.2 °F /  16.8 °C 30.17in /  1021.6hPa SSW 5.0mph /  8km/h 8.0mph /  12.9km/h 73% 0.00in /  0mm
13:13 71.7 °F /  22.1 °C 63.0 °F /  17.2 °C 30.17in /  1021.6hPa SSW 12.0mph /  19.3km/h 12.0mph /  19.3km/h 74% 0.00in /  0mm
13:18 72.0 °F /  22.2 °C 63.3 °F /  17.4 °C 30.17in /  1021.6hPa ESE 4.0mph /  6.4km/h 8.0mph /  12.9km/h 74% 0.00in /  0mm
13:23 72.1 °F /  22.3 °C 62.2 °F /  16.8 °C 30.17in /  1021.6hPa SW 7.0mph /  11.3km/h 9.0mph /  14.5km/h 71% 0.00in /  0mm
13:28 71.6 °F /  22 °C 62.9 °F /  17.2 °C 30.17in /  1021.6hPa SSW 6.0mph /  9.7km/h 10.0mph /  16.1km/h 74% 0.00in /  0mm
13:33 72.2 °F /  22.3 °C 62.3 °F /  16.8 °C 30.17in /  1021.6hPa WSW 9.0mph /  14.5km/h 9.0mph /  14.5km/h 71% 0.00in /  0mm
13:38 72.2 °F /  22.3 °C 63.5 °F /  17.5 °C 30.17in /  1021.6hPa SSW 7.0mph /  11.3km/h 12.0mph /  19.3km/h 74% 0.00in /  0mm
13:43 72.6 °F /  22.6 °C 62.7 °F /  17.1 °C 30.17in /  1021.6hPa SW 11.0mph /  17.7km/h 11.0mph /  17.7km/h 71% 0.00in /  0mm
13:49 72.1 °F /  22.3 °C 61.8 °F /  16.6 °C 30.17in /  1021.6hPa SW 8.0mph /  12.9km/h 9.0mph /  14.5km/h 70% 0.00in /  0mm
13:54 72.3 °F /  22.4 °C 62.4 °F /  16.9 °C 30.16in /  1021.2hPa South 2.0mph /  3.2km/h 11.0mph /  17.7km/h 71% 0.00in /  0mm
13:59 72.6 °F /  22.6 °C 62.7 °F /  17.1 °C 30.16in /  1021.2hPa South 7.0mph /  11.3km/h 10.0mph /  16.1km/h 71% 0.00in /  0mm
14:04 72.8 °F /  22.7 °C 62.9 °F /  17.2 °C 30.16in /  1021.2hPa WSW 6.0mph /  9.7km/h 10.0mph /  16.1km/h 71% 0.00in /  0mm
14:09 71.9 °F /  22.2 °C 61.6 °F /  16.4 °C 30.16in /  1021.2hPa SW 4.0mph /  6.4km/h 11.0mph /  17.7km/h 70% 0.00in /  0mm
14:14 71.5 °F /  21.9 °C 62.4 °F /  16.9 °C 30.16in /  1021.2hPa WNW 3.0mph /  4.8km/h 7.0mph /  11.3km/h 73% 0.00in /  0mm
14:19 72.4 °F /  22.4 °C 62.5 °F /  16.9 °C 30.15in /  1020.9hPa SW 5.0mph /  8km/h 9.0mph /  14.5km/h 71% 0.00in /  0mm
14:24 72.9 °F /  22.7 °C 62.5 °F /  16.9 °C 30.15in /  1020.9hPa SSE 10.0mph /  16.1km/h 10.0mph /  16.1km/h 70% 0.00in /  0mm
14:29 72.4 °F /  22.4 °C 62.1 °F /  16.7 °C 30.15in /  1020.9hPa SSE 13.0mph /  20.9km/h 13.0mph /  20.9km/h 70% 0.00in /  0mm
14:34 73.2 °F /  22.9 °C 63.6 °F /  17.6 °C 30.15in /  1020.9hPa SSW 6.0mph /  9.7km/h 11.0mph /  17.7km/h 72% 0.00in /  0mm
14:39 73.7 °F /  23.2 °C 62.5 °F /  16.9 °C 30.15in /  1020.9hPa SSW 6.0mph /  9.7km/h 9.0mph /  14.5km/h 68% 0.00in /  0mm
14:44 74.1 °F /  23.4 °C 61.2 °F /  16.2 °C 30.15in /  1020.9hPa SSW 3.0mph /  4.8km/h 9.0mph /  14.5km/h 64% 0.00in /  0mm
14:49 73.5 °F /  23.1 °C 61.9 °F /  16.6 °C 30.14in /  1020.5hPa SW 11.0mph /  17.7km/h 11.0mph /  17.7km/h 67% 0.00in /  0mm
14:54 73.1 °F /  22.8 °C 61.5 °F /  16.4 °C 30.14in /  1020.5hPa SSW 5.0mph /  8km/h 10.0mph /  16.1km/h 67% 0.00in /  0mm
15:00 73.5 °F /  23.1 °C 61.5 °F /  16.4 °C 30.14in /  1020.5hPa WSW 7.0mph /  11.3km/h 10.0mph /  16.1km/h 66% 0.00in /  0mm
15:05 74.3 °F /  23.5 °C 60.5 °F /  15.8 °C 30.14in /  1020.5hPa WSW 6.0mph /  9.7km/h 7.0mph /  11.3km/h 62% 0.00in /  0mm
15:10 74.4 °F /  23.6 °C 60.5 °F /  15.8 °C 30.13in /  1020.2hPa South 5.0mph /  8km/h 8.0mph /  12.9km/h 62% 0.00in /  0mm
15:15 74.6 °F /  23.7 °C 61.2 °F /  16.2 °C 30.13in /  1020.2hPa SSW 6.0mph /  9.7km/h 11.0mph /  17.7km/h 63% 0.00in /  0mm
15:20 73.9 °F /  23.3 °C 60.5 °F /  15.8 °C 30.13in /  1020.2hPa SW 6.0mph /  9.7km/h 7.0mph /  11.3km/h 63% 0.00in /  0mm
15:25 74.5 °F /  23.6 °C 62.0 °F /  16.7 °C 30.13in /  1020.2hPa WNW 1.0mph /  1.6km/h 9.0mph /  14.5km/h 65% 0.00in /  0mm
15:30 75.1 °F /  23.9 °C 61.2 °F /  16.2 °C 30.13in /  1020.2hPa SSW 5.0mph /  8km/h 8.0mph /  12.9km/h 62% 0.00in /  0mm
15:35 75.4 °F /  24.1 °C 60.1 °F /  15.6 °C 30.13in /  1020.2hPa WSW 5.0mph /  8km/h 11.0mph /  17.7km/h 59% 0.00in /  0mm
15:40 74.9 °F /  23.8 °C 61.0 °F /  16.1 °C 30.12in /  1019.9hPa SSE 6.0mph /  9.7km/h 10.0mph /  16.1km/h 62% 0.00in /  0mm
15:45 74.9 °F /  23.8 °C 60.6 °F /  15.9 °C 30.12in /  1019.9hPa SW 5.0mph /  8km/h 11.0mph /  17.7km/h 61% 0.00in /  0mm
15:50 75.3 °F /  24.1 °C 60.5 °F /  15.8 °C 30.12in /  1019.9hPa SSW 9.0mph /  14.5km/h 13.0mph /  20.9km/h 60% 0.00in /  0mm
15:55 75.3 °F /  24.1 °C 60.5 °F /  15.8 °C 30.12in /  1019.9hPa SSE 8.0mph /  12.9km/h 10.0mph /  16.1km/h 60% 0.00in /  0mm
16:00 75.4 °F /  24.1 °C 61.5 °F /  16.4 °C 30.12in /  1019.9hPa SW 11.0mph /  17.7km/h 11.0mph /  17.7km/h 62% 0.00in /  0mm
16:05 75.5 °F /  24.2 °C 59.7 °F /  15.4 °C 30.12in /  1019.9hPa South 7.0mph /  11.3km/h 10.0mph /  16.1km/h 58% 0.00in /  0mm
16:10 75.5 °F /  24.2 °C 59.7 °F /  15.4 °C 30.12in /  1019.9hPa SW 3.0mph /  4.8km/h 7.0mph /  11.3km/h 58% 0.00in /  0mm
16:15 75.4 °F /  24.1 °C 59.6 °F /  15.3 °C 30.12in /  1019.9hPa SW 6.0mph /  9.7km/h 10.0mph /  16.1km/h 58% 0.00in /  0mm
16:20 75.1 °F /  23.9 °C 60.8 °F /  16 °C 30.12in /  1019.9hPa SSE 11.0mph /  17.7km/h 11.0mph /  17.7km/h 61% 0.00in /  0mm
16:25 75.2 °F /  24 °C 59.4 °F /  15.2 °C 30.11in /  1019.5hPa SSE 3.0mph /  4.8km/h 7.0mph /  11.3km/h 58% 0.00in /  0mm
16:30 75.4 °F /  24.1 °C 59.1 °F /  15.1 °C 30.11in /  1019.5hPa SSW 8.0mph /  12.9km/h 11.0mph /  17.7km/h 57% 0.00in /  0mm
16:36 75.6 °F /  24.2 °C 59.8 °F /  15.4 °C 30.11in /  1019.5hPa South 6.0mph /  9.7km/h 10.0mph /  16.1km/h 58% 0.00in /  0mm
16:41 75.5 °F /  24.2 °C 59.2 °F /  15.1 °C 30.11in /  1019.5hPa SE 7.0mph /  11.3km/h 11.0mph /  17.7km/h 57% 0.00in /  0mm
16:46 75.6 °F /  24.2 °C 58.8 °F /  14.9 °C 30.11in /  1019.5hPa SSE 8.0mph /  12.9km/h 11.0mph /  17.7km/h 56% 0.00in /  0mm
16:51 75.7 °F /  24.3 °C 58.4 °F /  14.7 °C 30.11in /  1019.5hPa South 8.0mph /  12.9km/h 10.0mph /  16.1km/h 55% 0.00in /  0mm
16:56 75.7 °F /  24.3 °C 57.9 °F /  14.4 °C 30.11in /  1019.5hPa SSE 8.0mph /  12.9km/h 8.0mph /  12.9km/h 54% 0.00in /  0mm
17:01 75.9 °F /  24.4 °C 58.1 °F /  14.5 °C 30.11in /  1019.5hPa SW 6.0mph /  9.7km/h 9.0mph /  14.5km/h 54% 0.00in /  0mm
17:06 76.2 °F /  24.6 °C 58.4 °F /  14.7 °C 30.10in /  1019.2hPa SSW 2.0mph /  3.2km/h 8.0mph /  12.9km/h 54% 0.00in /  0mm
17:11 76.1 °F /  24.5 °C 56.7 °F /  13.7 °C 30.10in /  1019.2hPa SSW 7.0mph /  11.3km/h 10.0mph /  16.1km/h 51% 0.00in /  0mm
17:16 76.2 °F /  24.6 °C 57.3 °F /  14.1 °C 30.10in /  1019.2hPa WSW 4.0mph /  6.4km/h 7.0mph /  11.3km/h 52% 0.00in /  0mm
17:21 76.1 °F /  24.5 °C 57.2 °F /  14 °C 30.10in /  1019.2hPa SW 11.0mph /  17.7km/h 11.0mph /  17.7km/h 52% 0.00in /  0mm
17:26 76.1 °F /  24.5 °C 55.0 °F /  12.8 °C 30.10in /  1019.2hPa WSW 5.0mph /  8km/h 8.0mph /  12.9km/h 48% 0.00in /  0mm
17:31 76.2 °F /  24.6 °C 56.2 °F /  13.4 °C 30.10in /  1019.2hPa WSW 5.0mph /  8km/h 9.0mph /  14.5km/h 50% 0.00in /  0mm
17:36 76.2 °F /  24.6 °C 56.2 °F /  13.4 °C 30.10in /  1019.2hPa SW 7.0mph /  11.3km/h 9.0mph /  14.5km/h 50% 0.00in /  0mm
17:41 75.9 °F /  24.4 °C 56.0 °F /  13.3 °C 30.10in /  1019.2hPa SSW 5.0mph /  8km/h 12.0mph /  19.3km/h 50% 0.00in /  0mm
17:46 76.1 °F /  24.5 °C 56.1 °F /  13.4 °C 30.09in /  1018.8hPa SW 7.0mph /  11.3km/h 11.0mph /  17.7km/h 50% 0.00in /  0mm
17:51 76.2 °F /  24.6 °C 57.3 °F /  14.1 °C 30.09in /  1018.8hPa SW 5.0mph /  8km/h 5.0mph /  8km/h 52% 0.00in /  0mm
17:56 76.6 °F /  24.8 °C 57.1 °F /  13.9 °C 30.09in /  1018.8hPa SW 8.0mph /  12.9km/h 10.0mph /  16.1km/h 51% 0.00in /  0mm
18:01 76.4 °F /  24.7 °C 56.4 °F /  13.6 °C 30.09in /  1018.8hPa SSE 4.0mph /  6.4km/h 7.0mph /  11.3km/h 50% 0.00in /  0mm
18:06 76.3 °F /  24.6 °C 56.3 °F /  13.5 °C 30.09in /  1018.8hPa SSW 7.0mph /  11.3km/h 10.0mph /  16.1km/h 50% 0.00in /  0mm
18:11 76.2 °F /  24.6 °C 57.3 °F /  14.1 °C 30.09in /  1018.8hPa WSW 3.0mph /  4.8km/h 7.0mph /  11.3km/h 52% 0.00in /  0mm
18:17 76.3 °F /  24.6 °C 56.9 °F /  13.8 °C 30.09in /  1018.8hPa SSW 3.0mph /  4.8km/h 7.0mph /  11.3km/h 51% 0.00in /  0mm
18:22 76.2 °F /  24.6 °C 56.8 °F /  13.8 °C 30.09in /  1018.8hPa SSW 3.0mph /  4.8km/h 6.0mph /  9.7km/h 51% 0.00in /  0mm
18:27 76.4 °F /  24.7 °C 56.4 °F /  13.6 °C 30.09in /  1018.8hPa SSW 2.0mph /  3.2km/h 9.0mph /  14.5km/h 50% 0.00in /  0mm
18:32 76.1 °F /  24.5 °C 56.7 °F /  13.7 °C 30.09in /  1018.8hPa SW 6.0mph /  9.7km/h 7.0mph /  11.3km/h 51% 0.00in /  0mm
18:37 75.8 °F /  24.3 °C 56.9 °F /  13.8 °C 30.09in /  1018.8hPa WSW 6.0mph /  9.7km/h 8.0mph /  12.9km/h 52% 0.00in /  0mm
18:42 75.7 °F /  24.3 °C 57.4 °F /  14.1 °C 30.09in /  1018.8hPa SW 4.0mph /  6.4km/h 9.0mph /  14.5km/h 53% 0.00in /  0mm
18:47 75.8 °F /  24.3 °C 57.5 °F /  14.2 °C 30.09in /  1018.8hPa SSW 4.0mph /  6.4km/h 6.0mph /  9.7km/h 53% 0.00in /  0mm
18:52 75.7 °F /  24.3 °C 56.8 °F /  13.8 °C 30.09in /  1018.8hPa SSW 5.0mph /  8km/h 8.0mph /  12.9km/h 52% 0.00in /  0mm
18:57 75.5 °F /  24.2 °C 57.7 °F /  14.3 °C 30.09in /  1018.8hPa SSW 4.0mph /  6.4km/h 7.0mph /  11.3km/h 54% 0.00in /  0mm
19:02 75.3 °F /  24.1 °C 58.0 °F /  14.4 °C 30.09in /  1018.8hPa SW 3.0mph /  4.8km/h 5.0mph /  8km/h 55% 0.00in /  0mm
19:07 75.1 °F /  23.9 °C 58.3 °F /  14.6 °C 30.09in /  1018.8hPa SW 2.0mph /  3.2km/h 5.0mph /  8km/h 56% 0.00in /  0mm
19:12 75.0 °F /  23.9 °C 58.3 °F /  14.6 °C 30.09in /  1018.8hPa WSW 3.0mph /  4.8km/h 3.0mph /  4.8km/h 56% 0.00in /  0mm
19:17 74.8 °F /  23.8 °C 58.6 °F /  14.8 °C 30.09in /  1018.8hPa SW 3.0mph /  4.8km/h 5.0mph /  8km/h 57% 0.00in /  0mm
19:22 74.6 °F /  23.7 °C 57.9 °F /  14.4 °C 30.10in /  1019.2hPa SW 2.0mph /  3.2km/h 3.0mph /  4.8km/h 56% 0.00in /  0mm
19:27 74.4 °F /  23.6 °C 58.2 °F /  14.6 °C 30.09in /  1018.8hPa SW 1.0mph /  1.6km/h 2.0mph /  3.2km/h 57% 0.00in /  0mm
19:32 74.3 °F /  23.5 °C 58.1 °F /  14.5 °C 30.10in /  1019.2hPa SW 1.0mph /  1.6km/h 1.0mph /  1.6km/h 57% 0.00in /  0mm
19:37 74.0 °F /  23.3 °C 57.8 °F /  14.3 °C 30.10in /  1019.2hPa Calm   1.0mph /  1.6km/h 57% 0.00in /  0mm
19:42 73.6 °F /  23.1 °C 57.9 °F /  14.4 °C 30.09in /  1018.8hPa Calm   2.0mph /  3.2km/h 58% 0.00in /  0mm
19:47 73.0 °F /  22.8 °C 57.8 °F /  14.3 °C 30.09in /  1018.8hPa Calm   1.0mph /  1.6km/h 59% 0.00in /  0mm
19:52 72.4 °F /  22.4 °C 57.3 °F /  14.1 °C 30.10in /  1019.2hPa SW 1.0mph /  1.6km/h 1.0mph /  1.6km/h 59% 0.00in /  0mm
19:57 71.7 °F /  22.1 °C 57.5 °F /  14.2 °C 30.10in /  1019.2hPa SW 1.0mph /  1.6km/h 1.0mph /  1.6km/h 61% 0.00in /  0mm
20:02 71.1 °F /  21.7 °C 57.4 °F /  14.1 °C 30.10in /  1019.2hPa SW 1.0mph /  1.6km/h 1.0mph /  1.6km/h 62% 0.00in /  0mm
20:07 70.7 °F /  21.5 °C 57.5 °F /  14.2 °C 30.09in /  1018.8hPa Calm     63% 0.00in /  0mm
20:12 70.1 °F /  21.2 °C 56.9 °F /  13.8 °C 30.09in /  1018.8hPa Calm     63% 0.00in /  0mm
20:17 69.4 °F /  20.8 °C 56.7 °F /  13.7 °C 30.10in /  1019.2hPa Calm     64% 0.00in /  0mm
20:22 68.6 °F /  20.3 °C 56.8 °F /  13.8 °C 30.10in /  1019.2hPa Calm     66% 0.00in /  0mm
20:27 67.7 °F /  19.8 °C 56.8 °F /  13.8 °C 30.10in /  1019.2hPa Calm     68% 0.00in /  0mm
20:32 67.9 °F /  19.9 °C 57.0 °F /  13.9 °C 30.10in /  1019.2hPa SE 1.0mph /  1.6km/h 1.0mph /  1.6km/h 68% 0.00in /  0mm
20:37 68.2 °F /  20.1 °C 57.2 °F /  14 °C 30.10in /  1019.2hPa East 2.0mph /  3.2km/h 2.0mph /  3.2km/h 68% 0.00in /  0mm
20:42 68.2 °F /  20.1 °C 57.2 °F /  14 °C 30.10in /  1019.2hPa East 2.0mph /  3.2km/h 3.0mph /  4.8km/h 68% 0.00in /  0mm
20:47 68.4 °F /  20.2 °C 57.4 °F /  14.1 °C 30.10in /  1019.2hPa East 1.0mph /  1.6km/h 2.0mph /  3.2km/h 68% 0.00in /  0mm
20:52 68.6 °F /  20.3 °C 57.2 °F /  14 °C 30.10in /  1019.2hPa East 1.0mph /  1.6km/h 1.0mph /  1.6km/h 67% 0.00in /  0mm
20:57 68.5 °F /  20.3 °C 57.1 °F /  13.9 °C 30.10in /  1019.2hPa East 1.0mph /  1.6km/h 2.0mph /  3.2km/h 67% 0.00in /  0mm
21:02 68.2 °F /  20.1 °C 56.8 °F /  13.8 °C 30.10in /  1019.2hPa East 1.0mph /  1.6km/h 2.0mph /  3.2km/h 67% 0.00in /  0mm
21:07 67.9 °F /  19.9 °C 57.0 °F /  13.9 °C 30.10in /  1019.2hPa East 1.0mph /  1.6km/h 2.0mph /  3.2km/h 68% 0.00in /  0mm
21:12 67.6 °F /  19.8 °C 57.1 °F /  13.9 °C 30.10in /  1019.2hPa East 1.0mph /  1.6km/h 1.0mph /  1.6km/h 69% 0.00in /  0mm
21:18 67.7 °F /  19.8 °C 57.2 °F /  14 °C 30.11in /  1019.5hPa ESE 1.0mph /  1.6km/h 1.0mph /  1.6km/h 69% 0.00in /  0mm
21:23 67.9 °F /  19.9 °C 57.0 °F /  13.9 °C 30.11in /  1019.5hPa SE 1.0mph /  1.6km/h 1.0mph /  1.6km/h 68% 0.00in /  0mm
21:28 67.9 °F /  19.9 °C 57.0 °F /  13.9 °C 30.11in /  1019.5hPa SE 2.0mph /  3.2km/h 2.0mph /  3.2km/h 68% 0.00in /  0mm
21:33 68.0 °F /  20 °C 57.1 °F /  13.9 °C 30.11in /  1019.5hPa SE 1.0mph /  1.6km/h 2.0mph /  3.2km/h 68% 0.00in /  0mm
21:38 67.8 °F /  19.9 °C 56.9 °F /  13.8 °C 30.11in /  1019.5hPa SE 2.0mph /  3.2km/h 2.0mph /  3.2km/h 68% 0.00in /  0mm
21:43 67.6 °F /  19.8 °C 56.7 °F /  13.7 °C 30.12in /  1019.9hPa SE 1.0mph /  1.6km/h 2.0mph /  3.2km/h 68% 0.00in /  0mm
21:48 67.2 °F /  19.6 °C 56.7 °F /  13.7 °C 30.12in /  1019.9hPa SE 1.0mph /  1.6km/h 1.0mph /  1.6km/h 69% 0.00in /  0mm
21:54 67.0 °F /  19.4 °C 56.9 °F /  13.8 °C 30.12in /  1019.9hPa SE 1.0mph /  1.6km/h 1.0mph /  1.6km/h 70% 0.00in /  0mm
21:59 66.9 °F /  19.4 °C 56.8 °F /  13.8 °C 30.12in /  1019.9hPa SE 1.0mph /  1.6km/h 1.0mph /  1.6km/h 70% 0.00in /  0mm
22:04 66.7 °F /  19.3 °C 56.6 °F /  13.7 °C 30.12in /  1019.9hPa SE 1.0mph /  1.6km/h 1.0mph /  1.6km/h 70% 0.00in /  0mm
22:09 66.7 °F /  19.3 °C 56.6 °F /  13.7 °C 30.12in /  1019.9hPa SE 2.0mph /  3.2km/h 2.0mph /  3.2km/h 70% 0.00in /  0mm
22:14 66.6 °F /  19.2 °C 56.9 °F /  13.8 °C 30.13in /  1020.2hPa SE 2.0mph /  3.2km/h 2.0mph /  3.2km/h 71% 0.00in /  0mm
22:19 66.6 °F /  19.2 °C 56.9 °F /  13.8 °C 30.13in /  1020.2hPa SSE 1.0mph /  1.6km/h 2.0mph /  3.2km/h 71% 0.00in /  0mm
22:24 66.7 °F /  19.3 °C 57.0 °F /  13.9 °C 30.13in /  1020.2hPa South 2.0mph /  3.2km/h 3.0mph /  4.8km/h 71% 0.00in /  0mm
22:29 66.8 °F /  19.3 °C 56.7 °F /  13.7 °C 30.13in /  1020.2hPa SSE 1.0mph /  1.6km/h 2.0mph /  3.2km/h 70% 0.00in /  0mm
22:34 66.7 °F /  19.3 °C 57.0 °F /  13.9 °C 30.13in /  1020.2hPa SSE 2.0mph /  3.2km/h 2.0mph /  3.2km/h 71% 0.00in /  0mm
22:39 66.6 °F /  19.2 °C 56.9 °F /  13.8 °C 30.13in /  1020.2hPa SSE 2.0mph /  3.2km/h 3.0mph /  4.8km/h 71% 0.00in /  0mm
22:44 66.4 °F /  19.1 °C 56.7 °F /  13.7 °C 30.13in /  1020.2hPa SSE 2.0mph /  3.2km/h 3.0mph /  4.8km/h 71% 0.00in /  0mm
22:49 66.2 °F /  19 °C 56.9 °F /  13.8 °C 30.13in /  1020.2hPa SSE 3.0mph /  4.8km/h 3.0mph /  4.8km/h 72% 0.00in /  0mm
22:54 65.9 °F /  18.8 °C 57.0 °F /  13.9 °C 30.13in /  1020.2hPa SSE 2.0mph /  3.2km/h 2.0mph /  3.2km/h 73% 0.00in /  0mm
22:59 65.8 °F /  18.8 °C 56.9 °F /  13.8 °C 30.13in /  1020.2hPa SSE 2.0mph /  3.2km/h 3.0mph /  4.8km/h 73% 0.00in /  0mm
23:04 65.6 °F /  18.7 °C 57.1 °F /  13.9 °C 30.13in /  1020.2hPa SSE 3.0mph /  4.8km/h 3.0mph /  4.8km/h 74% 0.00in /  0mm
23:09 65.6 °F /  18.7 °C 57.1 °F /  13.9 °C 30.13in /  1020.2hPa South 1.0mph /  1.6km/h 3.0mph /  4.8km/h 74% 0.00in /  0mm
23:14 65.6 °F /  18.7 °C 57.1 °F /  13.9 °C 30.13in /  1020.2hPa SSE 2.0mph /  3.2km/h 3.0mph /  4.8km/h 74% 0.00in /  0mm
23:19 65.6 °F /  18.7 °C 57.5 °F /  14.2 °C 30.13in /  1020.2hPa SE 2.0mph /  3.2km/h 3.0mph /  4.8km/h 75% 0.00in /  0mm
23:24 65.2 °F /  18.4 °C 57.1 °F /  13.9 °C 30.13in /  1020.2hPa SSE 2.0mph /  3.2km/h 3.0mph /  4.8km/h 75% 0.00in /  0mm
23:29 64.4 °F /  18 °C 56.7 °F /  13.7 °C 30.13in /  1020.2hPa ESE 2.0mph /  3.2km/h 2.0mph /  3.2km/h 76% 0.00in /  0mm
23:34 63.6 °F /  17.6 °C 56.6 °F /  13.7 °C 30.14in /  1020.5hPa SE 1.0mph /  1.6km/h 3.0mph /  4.8km/h 78% 0.00in /  0mm
23:40 63.4 °F /  17.4 °C 56.8 °F /  13.8 °C 30.14in /  1020.5hPa SSE 1.0mph /  1.6km/h 1.0mph /  1.6km/h 79% 0.00in /  0mm
23:45 63.4 °F /  17.4 °C 57.1 °F /  13.9 °C 30.14in /  1020.5hPa SSE 2.0mph /  3.2km/h 2.0mph /  3.2km/h 80% 0.00in /  0mm
23:50 63.5 °F /  17.5 °C 57.2 °F /  14 °C 30.14in /  1020.5hPa SE 2.0mph /  3.2km/h 3.0mph /  4.8km/h 80% 0.00in /  0mm
23:55 63.8 °F /  17.7 °C 57.5 °F /  14.2 °C 30.14in /  1020.5hPa SSE 2.0mph /  3.2km/h 2.0mph /  3.2km/h 80% 0.00in /  0mm
Compliments of Weather Underground